Time;durP1;ratioP1;P1;durP2;ratioP2;P2;SDS_P1;SDS_P2;PMS_P1;PMS_P2;Temp;Humidity;BMP_temperature;BMP_pressure;BME280_temperature;BME280_humidity;BME280_pressure;Samples;Min_cycle;Max_cycle;Signal;HPM_P1;HPM_P2
2021/05/10 00:01:56;;;;;;;31.67;29.88;;;20.00;99.90;;;;;;5013747;28;20048;-52
2021/05/10 00:04:24;;;;;;;31.58;29.77;;;20.10;99.90;;;;;;5012418;28;20049;-55
2021/05/10 00:06:51;;;;;;;30.90;29.25;;;20.30;99.90;;;;;;5012326;28;20045;-50
2021/05/10 00:09:18;;;;;;;30.92;29.30;;;20.30;99.90;;;;;;5013831;28;20075;-53
2021/05/10 00:11:46;;;;;;;29.27;27.77;;;20.30;99.90;;;;;;5013861;28;20026;-55
2021/05/10 00:14:13;;;;;;;28.33;26.92;;;20.40;99.90;;;;;;5013345;28;20026;-51
2021/05/10 00:16:41;;;;;;;29.38;27.98;;;20.50;99.90;;;;;;5013133;28;20029;-52
2021/05/10 00:19:08;;;;;;;31.63;30.08;;;20.70;99.90;;;;;;5012914;28;20202;-55
2021/05/10 00:21:35;;;;;;;26.25;25.00;;;20.90;99.90;;;;;;5011946;28;20033;-55
2021/05/10 00:24:03;;;;;;;27.83;26.23;;;20.80;99.90;;;;;;5013090;28;20045;-51
2021/05/10 00:26:30;;;;;;;24.23;23.02;;;21.00;99.90;;;;;;5013157;28;20037;-54
2021/05/10 00:28:57;;;;;;;23.10;22.00;;;21.00;99.90;;;;;;5011798;28;20041;-54
2021/05/10 00:31:25;;;;;;;22.30;21.23;;;21.10;99.90;;;;;;5013009;28;20462;-54
2021/05/10 00:33:52;;;;;;;21.35;20.10;;;21.00;99.90;;;;;;5013002;28;20026;-54
2021/05/10 00:36:19;;;;;;;21.98;20.77;;;21.00;99.90;;;;;;5013003;28;20084;-54
2021/05/10 00:38:47;;;;;;;21.48;20.38;;;21.00;99.90;;;;;;5013015;28;20030;-51
2021/05/10 00:41:14;;;;;;;19.50;18.60;;;21.10;99.90;;;;;;5011918;28;20034;-56
2021/05/10 00:43:41;;;;;;;17.88;17.00;;;21.20;99.90;;;;;;5012825;28;20084;-52
2021/05/10 00:46:09;;;;;;;16.08;15.27;;;21.30;99.90;;;;;;5012925;28;20026;-52
2021/05/10 00:48:36;;;;;;;15.48;14.88;;;21.40;99.90;;;;;;5012917;28;20106;-54
2021/05/10 00:51:03;;;;;;;12.95;12.23;;;21.60;99.90;;;;;;5012899;28;20018;-55
2021/05/10 00:53:31;;;;;;;10.35;9.85;;;21.50;99.90;;;;;;5016070;28;20370;-53
2021/05/10 00:55:58;;;;;;;9.98;9.40;;;21.80;99.90;;;;;;5016620;28;20474;-52
2021/05/10 00:58:26;;;;;;;7.07;6.45;;;21.70;99.90;;;;;;5015292;28;20030;-56
2021/05/10 01:00:53;;;;;;;7.75;7.30;;;21.80;99.90;;;;;;5015388;28;20021;-54
2021/05/10 01:03:21;;;;;;;5.90;5.60;;;21.90;99.90;;;;;;5015068;28;20057;-52
2021/05/10 01:05:49;;;;;;;4.72;4.53;;;21.90;99.90;;;;;;5016214;28;20022;-50
2021/05/10 01:08:16;;;;;;;5.90;5.40;;;22.00;99.90;;;;;;5016283;28;20018;-51
2021/05/10 01:10:45;;;;;;;5.32;4.93;;;21.90;99.90;;;;;;5016334;28;20018;-49
2021/05/10 01:13:13;;;;;;;6.05;5.65;;;21.80;99.90;;;;;;5015009;28;20055;-50
2021/05/10 01:15:41;;;;;;;5.95;5.38;;;21.90;99.90;;;;;;5016152;28;20117;-54
2021/05/10 01:18:09;;;;;;;5.07;4.78;;;22.10;99.90;;;;;;5016107;28;20057;-53
2021/05/10 01:20:38;;;;;;;5.50;5.20;;;22.00;99.90;;;;;;5015929;28;20050;-48
2021/05/10 01:23:05;;;;;;;5.07;4.78;;;22.20;99.90;;;;;;5014651;28;20034;-52
2021/05/10 01:25:33;;;;;;;4.15;3.85;;;22.30;99.90;;;;;;5016216;28;20022;-52
2021/05/10 01:28:01;;;;;;;4.15;3.95;;;22.40;99.90;;;;;;5015890;28;20022;-52
2021/05/10 01:30:37;;;;;;;3.10;3.00;;;22.50;98.60;;;;;;5015965;28;20473;-49
2021/05/10 01:33:08;;;;;;;4.05;3.85;;;22.30;98.30;;;;;;5014719;28;20068;-52
2021/05/10 01:35:35;;;;;;;;;;;22.40;98.40;;;;;;5016418;28;20080;-53
2021/05/10 01:38:06;;;;;;;3.83;3.50;;;22.60;98.40;;;;;;5015983;28;19905;-50
2021/05/10 01:40:33;;;;;;;;;;;22.80;98.50;;;;;;5016312;28;20026;-54
2021/05/10 01:43:01;;;;;;;4.00;3.80;;;22.90;97.00;;;;;;5015802;28;20362;-51
2021/05/10 01:45:28;;;;;;;3.38;3.10;;;22.70;97.00;;;;;;5015752;28;20026;-52
2021/05/10 01:48:07;;;;;;;3.35;3.05;;;22.70;97.30;;;;;;5015751;28;20101;-51
2021/05/10 01:50:37;;;;;;;3.08;2.97;;;22.80;97.50;;;;;;5015628;28;20088;-54
2021/05/10 01:53:08;;;;;;;3.70;3.50;;;22.90;97.30;;;;;;5015805;28;20402;-55
2021/05/10 01:55:36;;;;;;;3.50;3.20;;;22.90;96.90;;;;;;5015398;28;20263;-53
2021/05/10 01:58:05;;;;;;;3.67;3.47;;;22.90;96.40;;;;;;5015500;28;20034;-48
2021/05/10 02:00:47;;;;;;;3.65;3.45;;;23.10;98.00;;;;;;5015542;28;20050;-50
2021/05/10 02:03:24;;;;;;;3.20;3.00;;;23.00;96.50;;;;;;5014843;28;20080;-49
2021/05/10 02:05:53;;;;;;;3.60;3.40;;;23.10;96.00;;;;;;5015315;28;20104;-50
2021/05/10 02:08:21;;;;;;;3.47;3.33;;;23.00;95.70;;;;;;5015163;28;20068;-54
2021/05/10 02:10:51;;;;;;;4.05;3.45;;;23.20;96.10;;;;;;5013852;28;20030;-54
2021/05/10 02:13:19;;;;;;;3.50;3.30;;;23.20;95.90;;;;;;5015108;28;20385;-50
2021/05/10 02:15:49;;;;;;;3.67;3.47;;;23.00;96.20;;;;;;5015052;28;20029;-51
2021/05/10 02:18:19;;;;;;;3.78;3.47;;;23.00;95.80;;;;;;5015110;28;20052;-52
2021/05/10 02:20:47;;;;;;;3.30;3.10;;;23.20;96.60;;;;;;5014763;28;20046;-50
2021/05/10 02:23:21;;;;;;;3.65;3.45;;;23.30;95.70;;;;;;5014802;28;20112;-54
2021/05/10 02:25:54;;;;;;;3.70;3.50;;;23.30;95.80;;;;;;5015254;28;20193;-54
2021/05/10 02:28:24;;;;;;;4.00;3.70;;;23.20;95.80;;;;;;5015113;28;20025;-50
2021/05/10 02:30:55;;;;;;;3.75;3.45;;;23.50;96.30;;;;;;5014829;28;20030;-54
2021/05/10 02:33:26;;;;;;;3.75;3.40;;;23.70;96.30;;;;;;5013771;28;20395;-55
2021/05/10 02:35:55;;;;;;;3.70;3.50;;;23.80;96.20;;;;;;5014726;28;20451;-55
2021/05/10 02:38:23;;;;;;;3.58;3.38;;;23.60;95.50;;;;;;5014729;28;20049;-55
2021/05/10 02:40:52;;;;;;;3.80;3.60;;;23.60;95.90;;;;;;5014762;28;20033;-55
2021/05/10 02:43:21;;;;;;;3.95;3.75;;;23.50;96.30;;;;;;5014464;28;20026;-51
2021/05/10 02:45:49;;;;;;;4.10;3.90;;;23.70;96.70;;;;;;5014503;28;20036;-51
2021/05/10 02:48:16;;;;;;;4.50;4.20;;;23.60;96.00;;;;;;5014638;28;20069;-53
2021/05/10 02:50:44;;;;;;;4.47;4.18;;;23.40;96.00;;;;;;5014519;28;20033;-53
2021/05/10 02:53:12;;;;;;;3.80;3.60;;;23.30;96.40;;;;;;5014432;28;20034;-54
2021/05/10 02:55:39;;;;;;;3.80;3.60;;;23.70;97.40;;;;;;5014206;28;20044;-53
2021/05/10 02:58:06;;;;;;;3.60;3.40;;;23.80;96.00;;;;;;5014377;28;20436;-52
2021/05/10 03:00:34;;;;;;;3.30;3.10;;;23.50;95.90;;;;;;5014275;28;20104;-52
2021/05/10 03:03:01;;;;;;;5.15;3.40;;;23.40;96.00;;;;;;5013998;28;20113;-56
2021/05/10 03:05:29;;;;;;;3.50;3.40;;;23.60;96.10;;;;;;5014123;28;20419;-59
2021/05/10 03:07:57;;;;;;;3.83;3.63;;;23.60;96.40;;;;;;5013955;28;20025;-51
2021/05/10 03:13:40;;;;;;;4.57;4.28;;;23.70;96.50;;;;;;5013810;28;20030;-53
2021/05/10 03:16:25;;;;;;;4.97;3.78;;;23.60;96.10;;;;;;5013813;28;20393;-52
2021/05/10 03:18:52;;;;;;;3.95;3.50;;;23.50;96.90;;;;;;5014237;28;20374;-54
2021/05/10 03:21:19;;;;;;;3.80;3.70;;;23.70;96.20;;;;;;5013857;28;20571;-53
2021/05/10 03:23:47;;;;;;;3.65;3.50;;;23.40;96.00;;;;;;5013753;28;20037;-49
2021/05/10 03:26:14;;;;;;;3.60;3.50;;;23.30;96.60;;;;;;5013860;28;20029;-49
2021/05/10 03:28:42;;;;;;;3.90;3.63;;;23.40;96.60;;;;;;5013721;28;20021;-49
2021/05/10 03:31:09;;;;;;;4.00;3.70;;;23.20;96.40;;;;;;5013730;28;20022;-54
2021/05/10 03:33:36;;;;;;;3.65;3.45;;;23.00;97.10;;;;;;5013781;28;20026;-51
2021/05/10 03:36:04;;;;;;;4.50;4.20;;;23.10;96.60;;;;;;5013589;28;20025;-49
2021/05/10 03:38:31;;;;;;;4.05;3.75;;;22.90;96.60;;;;;;5013831;28;20080;-51
2021/05/10 03:40:59;;;;;;;4.60;4.30;;;23.40;97.00;;;;;;5013316;28;20030;-50
2021/05/10 03:43:26;;;;;;;4.40;4.00;;;23.60;97.00;;;;;;5013323;28;20030;-52
2021/05/10 03:45:56;;;;;;;4.63;3.67;;;23.80;96.00;;;;;;5012238;28;20117;-52
2021/05/10 03:48:23;;;;;;;3.53;3.33;;;23.80;96.20;;;;;;5013576;28;20471;-53
2021/05/10 03:50:50;;;;;;;4.25;4.05;;;23.90;95.40;;;;;;5013292;28;20026;-51
2021/05/10 03:53:18;;;;;;;4.03;3.80;;;23.90;96.40;;;;;;5012224;28;20439;-51
2021/05/10 03:55:45;;;;;;;4.28;3.97;;;23.90;96.70;;;;;;5013336;28;20032;-52
2021/05/10 03:58:13;;;;;;;3.92;3.72;;;23.90;97.10;;;;;;5013414;28;20101;-50
2021/05/10 04:00:40;;;;;;;3.88;3.58;;;23.80;96.00;;;;;;5013411;28;20025;-51
2021/05/10 04:03:11;;;;;;;3.70;3.60;;;24.00;95.60;;;;;;5012193;28;20390;-51
2021/05/10 04:11:04;;;;;;;3.92;3.72;;;23.80;94.10;;;;;;5013366;28;20549;-52
2021/05/10 04:13:41;;;;;;;3.95;3.83;;;23.80;93.60;;;;;;5012106;28;20446;-53
2021/05/10 04:16:08;;;;;;;3.72;3.63;;;23.80;92.70;;;;;;5013257;28;20030;-52
2021/05/10 04:18:36;;;;;;;3.70;3.60;;;23.90;92.50;;;;;;5013134;28;20049;-52
2021/05/10 04:21:03;;;;;;;3.88;3.67;;;23.80;92.30;;;;;;5012938;28;20054;-51
2021/05/10 04:23:31;;;;;;;4.28;3.63;;;23.80;93.20;;;;;;5013010;28;20056;-54
2021/05/10 04:25:58;;;;;;;4.65;3.67;;;24.10;92.60;;;;;;5013265;28;20037;-52
2021/05/10 04:28:26;;;;;;;3.88;3.60;;;24.00;92.00;;;;;;5016352;28;20482;-49
2021/05/10 04:30:55;;;;;;;3.80;3.60;;;23.90;91.70;;;;;;5017166;28;20018;-50
2021/05/10 04:33:28;;;;;;;3.80;3.50;;;24.10;92.40;;;;;;5017141;28;20025;-52
2021/05/10 04:35:56;;;;;;;3.80;3.60;;;24.10;91.80;;;;;;5017023;28;20281;-51
2021/05/10 04:38:24;;;;;;;3.90;3.70;;;24.00;91.40;;;;;;5016912;28;20029;-51
2021/05/10 04:40:54;;;;;;;4.03;3.72;;;23.80;91.70;;;;;;5016886;28;20033;-52
2021/05/10 04:43:22;;;;;;;3.78;3.30;;;23.70;92.00;;;;;;5017042;28;20030;-49
2021/05/10 04:45:49;;;;;;;4.07;3.70;;;23.50;92.00;;;;;;5016860;28;20033;-52
2021/05/10 04:48:17;;;;;;;3.70;3.45;;;23.60;92.00;;;;;;5015457;28;20026;-49
2021/05/10 04:50:44;;;;;;;3.40;3.10;;;23.40;91.80;;;;;;5016798;28;20028;-49
2021/05/10 04:53:13;;;;;;;3.70;3.50;;;23.70;92.00;;;;;;5016623;28;20029;-48
2021/05/10 04:55:41;;;;;;;3.58;3.40;;;23.70;91.80;;;;;;5016488;28;20033;-50
2021/05/10 04:58:08;;;;;;;4.00;3.80;;;23.70;91.50;;;;;;5016882;28;20029;-49
2021/05/10 05:00:36;;;;;;;4.20;3.90;;;23.80;92.00;;;;;;5015258;28;20397;-49
2021/05/10 05:03:04;;;;;;;3.90;3.70;;;23.90;91.70;;;;;;5016441;28;20480;-52
2021/05/10 05:05:31;;;;;;;3.60;3.42;;;23.70;91.20;;;;;;5016371;28;20029;-52
2021/05/10 05:07:59;;;;;;;4.60;4.28;;;23.70;91.20;;;;;;5016382;28;20069;-52
2021/05/10 05:10:26;;;;;;;4.40;4.13;;;23.70;91.50;;;;;;5015190;28;20022;-52
2021/05/10 05:12:53;;;;;;;4.10;3.90;;;23.80;92.00;;;;;;5016387;28;20049;-52
2021/05/10 05:15:22;;;;;;;3.95;3.85;;;23.80;92.20;;;;;;5016316;28;20022;-50
2021/05/10 05:17:49;;;;;;;4.00;3.83;;;23.70;92.10;;;;;;5015079;28;20060;-49
2021/05/10 05:20:18;;;;;;;4.03;3.83;;;23.70;91.80;;;;;;5015950;28;20049;-51
2021/05/10 05:22:46;;;;;;;3.90;3.60;;;23.60;92.10;;;;;;5016005;28;20038;-49
2021/05/10 05:25:13;;;;;;;4.03;3.80;;;23.40;91.90;;;;;;5015988;28;20018;-51
2021/05/10 05:27:41;;;;;;;3.80;3.50;;;23.30;93.30;;;;;;5016081;28;20026;-52
2021/05/10 05:30:10;;;;;;;4.18;3.70;;;23.30;92.70;;;;;;5016050;28;20363;-49
2021/05/10 05:32:38;;;;;;;3.70;3.50;;;23.10;93.00;;;;;;5015855;28;20022;-53
2021/05/10 05:35:06;;;;;;;3.80;3.60;;;23.10;93.30;;;;;;5015889;28;20386;-52
2021/05/10 05:37:33;;;;;;;3.40;3.30;;;23.20;93.40;;;;;;5015867;28;20161;-51
2021/05/10 05:40:00;;;;;;;3.80;3.50;;;23.20;92.30;;;;;;5014571;28;20105;-49
2021/05/10 05:42:28;;;;;;;3.80;3.50;;;23.20;92.50;;;;;;5015708;28;20045;-52
2021/05/10 05:44:55;;;;;;;3.72;3.45;;;23.20;92.30;;;;;;5015585;28;20026;-50
2021/05/10 05:47:28;;;;;;;4.03;3.80;;;23.20;92.20;;;;;;5015577;28;20112;-50
2021/05/10 05:49:55;;;;;;;3.80;3.60;;;23.10;92.30;;;;;;5014582;28;20025;-52
2021/05/10 05:52:23;;;;;;;3.60;3.33;;;23.00;92.30;;;;;;5015649;28;20018;-53
2021/05/10 05:54:52;;;;;;;3.63;3.30;;;22.90;93.20;;;;;;5015588;28;20022;-51
2021/05/10 05:57:20;;;;;;;3.92;3.55;;;22.80;92.60;;;;;;5015461;28;20032;-52
2021/05/10 05:59:47;;;;;;;3.72;3.53;;;22.60;92.40;;;;;;5015633;28;20025;-52
2021/05/10 06:02:15;;;;;;;3.88;3.60;;;22.60;92.40;;;;;;5015754;28;20022;-52
2021/05/10 06:04:42;;;;;;;3.83;3.53;;;22.60;92.60;;;;;;5015559;28;20022;-48
2021/05/10 06:07:09;;;;;;;3.75;3.65;;;22.50;92.30;;;;;;5015323;28;20104;-49
2021/05/10 06:09:37;;;;;;;4.00;3.80;;;22.50;93.20;;;;;;5015330;28;20190;-50
2021/05/10 06:12:04;;;;;;;4.25;4.05;;;22.40;92.90;;;;;;5015282;28;20022;-48
2021/05/10 06:14:32;;;;;;;4.20;3.85;;;22.40;92.90;;;;;;5015148;28;20033;-50
2021/05/10 06:16:59;;;;;;;3.60;3.40;;;22.40;92.80;;;;;;5015126;28;20029;-50
2021/05/10 06:19:27;;;;;;;3.83;3.70;;;22.30;92.70;;;;;;5014790;28;20388;-52
2021/05/10 06:21:54;;;;;;;4.07;3.78;;;22.30;92.90;;;;;;5013670;28;20034;-54
2021/05/10 06:24:22;;;;;;;3.70;3.60;;;22.20;93.10;;;;;;5013599;28;20498;-52
2021/05/10 06:26:49;;;;;;;3.58;3.42;;;22.20;93.10;;;;;;5014842;28;20048;-48
2021/05/10 06:29:17;;;;;;;3.67;3.50;;;22.20;93.00;;;;;;5014516;28;20121;-47
2021/05/10 06:31:44;;;;;;;3.90;3.65;;;22.20;93.00;;;;;;5014917;28;20052;-52
2021/05/10 06:34:11;;;;;;;3.55;3.40;;;22.00;93.40;;;;;;5014766;28;20053;-49
2021/05/10 06:36:39;;;;;;;3.50;3.30;;;21.80;93.90;;;;;;5014684;28;20145;-49
2021/05/10 06:39:06;;;;;;;3.38;3.10;;;21.70;93.90;;;;;;5014520;28;20029;-52
2021/05/10 06:41:33;;;;;;;4.10;3.80;;;21.60;94.00;;;;;;5014638;28;20030;-52
2021/05/10 06:44:01;;;;;;;3.40;3.20;;;21.40;94.20;;;;;;5013405;28;20022;-49
2021/05/10 06:46:28;;;;;;;3.83;3.53;;;21.30;94.80;;;;;;5014435;28;20428;-49
2021/05/10 06:48:55;;;;;;;4.15;3.95;;;21.20;94.70;;;;;;5014508;28;20109;-50
2021/05/10 06:51:23;;;;;;;4.30;4.00;;;21.20;94.60;;;;;;5014162;28;20021;-49
2021/05/10 06:53:50;;;;;;;4.00;3.70;;;21.00;94.80;;;;;;5014318;28;20037;-48
2021/05/10 06:56:17;;;;;;;3.80;3.60;;;20.90;95.10;;;;;;5014234;28;20033;-54
2021/05/10 06:58:45;;;;;;;4.20;3.90;;;20.90;95.00;;;;;;5014218;28;20433;-53
2021/05/10 07:01:12;;;;;;;3.97;3.67;;;20.90;95.50;;;;;;5014075;28;20026;-49
2021/05/10 07:03:40;;;;;;;4.15;3.75;;;20.80;95.60;;;;;;5014255;28;20025;-53
2021/05/10 07:06:07;;;;;;;4.93;4.50;;;20.60;96.30;;;;;;5014094;28;20026;-51
2021/05/10 07:08:34;;;;;;;4.57;4.28;;;20.50;96.30;;;;;;5013957;28;20034;-50
2021/05/10 07:11:02;;;;;;;4.25;3.95;;;20.30;96.80;;;;;;5013946;28;20030;-50
2021/05/10 07:13:29;;;;;;;4.32;3.92;;;20.10;97.40;;;;;;5013959;28;20026;-50
2021/05/10 07:15:56;;;;;;;4.32;4.05;;;19.90;98.00;;;;;;5014020;28;20036;-51
2021/05/10 07:18:24;;;;;;;4.50;4.20;;;19.80;98.60;;;;;;5013670;28;20026;-53
2021/05/10 07:20:51;;;;;;;4.80;4.50;;;19.60;99.00;;;;;;5013469;28;20089;-49
2021/05/10 07:23:19;;;;;;;4.22;4.03;;;19.50;99.50;;;;;;5013637;28;20121;-53
2021/05/10 07:25:48;;;;;;;8.25;4.55;;;19.40;99.90;;;;;;5013397;28;20026;-49
2021/05/10 07:28:18;;;;;;;4.43;4.23;;;19.40;99.90;;;;;;5014003;28;20026;-50
2021/05/10 07:30:48;;;;;;;4.50;4.30;;;19.40;99.90;;;;;;5013813;28;20262;-53
2021/05/10 07:33:16;;;;;;;4.88;4.20;;;19.30;99.90;;;;;;5013858;28;20053;-54
2021/05/10 07:35:43;;;;;;;4.30;4.00;;;19.20;99.90;;;;;;5013705;28;20030;-53
2021/05/10 07:38:11;;;;;;;4.30;4.00;;;19.10;99.90;;;;;;5013716;28;20433;-49
2021/05/10 07:40:39;;;;;;;5.93;5.35;;;19.00;99.90;;;;;;5013704;28;20030;-51
2021/05/10 07:43:09;;;;;;;4.90;4.60;;;18.90;99.90;;;;;;5013313;28;20064;-50
2021/05/10 07:45:37;;;;;;;5.22;4.88;;;18.80;99.90;;;;;;5013608;28;20034;-52
2021/05/10 07:48:04;;;;;;;5.18;4.70;;;18.80;99.90;;;;;;5013437;28;20030;-51
2021/05/10 07:50:32;;;;;;;5.95;5.53;;;18.90;99.90;;;;;;5013411;28;20029;-52
2021/05/10 07:53:00;;;;;;;5.38;4.88;;;18.70;99.90;;;;;;5013530;28;20026;-55
2021/05/10 07:55:27;;;;;;;5.63;5.22;;;18.60;99.90;;;;;;5013574;28;20445;-51
2021/05/10 07:57:55;;;;;;;4.82;4.53;;;18.40;99.90;;;;;;5013793;28;20393;-53
2021/05/10 08:00:36;;;;;;;6.05;5.30;;;18.40;99.90;;;;;;5013636;28;20025;-54
2021/05/10 08:03:07;;;;;;;;;;;18.30;99.90;;;;;;5013179;28;20109;-54
2021/05/10 08:05:39;;;;;;;4.78;4.47;;;18.20;99.90;;;;;;5013417;28;19996;-52
2021/05/10 08:08:08;;;;;;;5.95;5.40;;;18.00;99.90;;;;;;5012114;28;20049;-51
2021/05/10 08:10:35;;;;;;;6.47;5.63;;;17.90;99.90;;;;;;5013420;28;20109;-52
2021/05/10 08:13:02;;;;;;;6.10;5.07;;;17.70;99.90;;;;;;5013298;28;20025;-54
2021/05/10 08:15:30;;;;;;;5.85;5.40;;;17.70;99.90;;;;;;5013144;28;20034;-52
2021/05/10 08:17:57;;;;;;;6.00;5.50;;;17.70;99.90;;;;;;5013119;28;20112;-52
2021/05/10 08:20:25;;;;;;;9.27;7.70;;;17.60;99.90;;;;;;5013000;28;20104;-55
2021/05/10 08:22:52;;;;;;;14.63;8.55;;;17.60;99.90;;;;;;5013137;28;20033;-55
2021/05/10 08:25:20;;;;;;;17.75;8.13;;;17.60;99.90;;;;;;5011874;28;20064;-53
2021/05/10 08:27:47;;;;;;;9.23;7.22;;;17.50;99.90;;;;;;5013187;28;20026;-53
2021/05/10 08:30:15;;;;;;;7.45;6.80;;;17.50;99.90;;;;;;5013077;28;20087;-52
2021/05/10 08:32:42;;;;;;;7.65;6.60;;;17.40;99.90;;;;;;5013019;28;20068;-54
2021/05/10 08:35:11;;;;;;;7.82;7.03;;;17.30;99.90;;;;;;5013138;28;20018;-54
2021/05/10 08:37:39;;;;;;;9.45;7.00;;;17.20;99.90;;;;;;5013003;28;20486;-52
2021/05/10 08:40:07;;;;;;;8.00;7.30;;;17.20;99.90;;;;;;5013021;28;20049;-51
2021/05/10 08:42:35;;;;;;;8.25;7.57;;;17.10;99.90;;;;;;5013109;28;20022;-56
2021/05/10 08:45:03;;;;;;;8.52;7.82;;;17.10;99.90;;;;;;5012952;28;20028;-51
2021/05/10 08:47:33;;;;;;;8.93;8.15;;;17.00;99.90;;;;;;5012944;28;20025;-54
2021/05/10 08:50:02;;;;;;;8.35;7.38;;;17.00;99.90;;;;;;5013348;28;20375;-55
2021/05/10 08:52:29;;;;;;;7.68;7.18;;;17.00;99.90;;;;;;5011746;28;20026;-54
2021/05/10 08:54:57;;;;;;;8.68;7.97;;;16.90;99.90;;;;;;5011875;28;20080;-52
2021/05/10 08:57:24;;;;;;;9.10;8.30;;;16.90;99.90;;;;;;5012792;28;20113;-52
2021/05/10 08:59:52;;;;;;;9.35;8.40;;;16.80;99.90;;;;;;5012921;28;20121;-55
2021/05/10 09:02:33;;;;;;;9.73;9.02;;;16.70;99.90;;;;;;5012993;28;20045;-56
2021/05/10 09:05:21;;;;;;;10.52;9.70;;;16.70;99.90;;;;;;5012860;28;20026;-55
2021/05/10 09:08:07;;;;;;;11.07;10.27;;;16.60;99.90;;;;;;5012805;28;20053;-51
2021/05/10 09:10:35;;;;;;;12.02;11.02;;;16.50;99.90;;;;;;5012774;28;20105;-55
2021/05/10 09:13:02;;;;;;;11.75;11.02;;;16.50;99.90;;;;;;5013629;28;20025;-53
2021/05/10 09:15:31;;;;;;;11.77;11.00;;;16.50;99.90;;;;;;5016362;28;20030;-54
2021/05/10 09:18:09;;;;;;;12.15;11.35;;;16.40;99.90;;;;;;5016225;28;20034;-52
2021/05/10 09:20:41;;;;;;;12.65;11.85;;;16.40;99.90;;;;;;5016059;28;20406;-54
2021/05/10 09:23:14;;;;;;;13.80;12.88;;;16.40;99.90;;;;;;5016170;28;20394;-52
2021/05/10 09:25:46;;;;;;;12.88;11.98;;;16.40;99.90;;;;;;5016301;28;20556;-54
2021/05/10 09:28:24;;;;;;;14.52;13.30;;;16.40;99.90;;;;;;5016235;28;20022;-53
2021/05/10 09:30:58;;;;;;;14.30;13.30;;;16.40;99.90;;;;;;5016187;28;20028;-56
2021/05/10 09:33:27;;;;;;;15.38;14.18;;;16.40;99.90;;;;;;5016016;28;20422;-53
2021/05/10 09:35:56;;;;;;;15.93;14.50;;;16.40;99.90;;;;;;5016057;28;20105;-52
2021/05/10 09:38:25;;;;;;;16.08;15.07;;;16.30;99.90;;;;;;5016030;28;20030;-53
2021/05/10 09:40:52;;;;;;;16.05;14.73;;;16.30;99.90;;;;;;5015962;28;20034;-53
2021/05/10 09:43:23;;;;;;;16.58;15.38;;;16.20;99.90;;;;;;5015722;28;20064;-57
2021/05/10 09:45:50;;;;;;;;;;;16.10;99.90;;;;;;5016112;28;20021;-56
2021/05/10 09:48:23;;;;;;;17.98;16.55;;;16.10;99.90;;;;;;5015622;28;19933;-51
2021/05/10 09:50:52;;;;;;;17.48;16.38;;;16.00;99.90;;;;;;5015737;28;20084;-53
2021/05/10 09:53:31;;;;;;;18.55;17.20;;;16.00;99.90;;;;;;5015433;28;20029;-54
2021/05/10 09:55:59;;;;;;;18.98;17.65;;;16.00;99.90;;;;;;5015534;28;20032;-53
2021/05/10 09:58:47;;;;;;;19.90;18.65;;;16.00;99.90;;;;;;5015375;28;20474;-54
2021/05/10 10:01:14;;;;;;;19.50;18.30;;;15.90;99.90;;;;;;5015323;28;20022;-51
2021/05/10 10:03:47;;;;;;;20.30;19.10;;;15.90;99.90;;;;;;5013862;28;20030;-51
2021/05/10 10:06:16;;;;;;;19.02;17.70;;;16.00;99.90;;;;;;5015539;28;20026;-52
2021/05/10 10:08:49;;;;;;;19.17;17.98;;;15.90;99.90;;;;;;5015323;28;20014;-54
2021/05/10 10:11:18;;;;;;;19.27;18.10;;;15.90;99.90;;;;;;5015193;28;20497;-53
2021/05/10 10:13:46;;;;;;;18.75;17.48;;;15.90;99.90;;;;;;5015067;28;20038;-52
2021/05/10 10:16:20;;;;;;;19.45;18.35;;;15.90;99.90;;;;;;5015006;28;20045;-55
2021/05/10 10:18:48;;;;;;;18.70;17.67;;;15.90;99.90;;;;;;5014914;28;20037;-53
2021/05/10 10:21:17;;;;;;;19.50;17.90;;;15.80;99.90;;;;;;5014788;28;20050;-52
2021/05/10 10:24:01;;;;;;;20.08;18.75;;;15.80;99.90;;;;;;5014880;28;20025;-55
2021/05/10 10:26:29;;;;;;;19.45;18.10;;;15.80;99.90;;;;;;5014297;28;20029;-55
2021/05/10 10:28:57;;;;;;;19.38;18.25;;;15.80;99.90;;;;;;5014745;28;20026;-54
2021/05/10 10:31:32;;;;;;;18.70;17.63;;;15.80;99.90;;;;;;5014764;28;20030;-53
2021/05/10 10:34:35;;;;;;;18.88;17.88;;;15.70;99.90;;;;;;5014733;28;20030;-54
2021/05/10 10:37:05;;;;;;;19.08;17.85;;;15.70;99.90;;;;;;5013604;28;20038;-53
2021/05/10 10:39:33;;;;;;;19.95;18.73;;;15.60;99.90;;;;;;5014473;28;20104;-56
2021/05/10 10:42:25;;;;;;;18.25;17.35;;;15.60;99.90;;;;;;5014489;28;20368;-51
2021/05/10 10:44:56;;;;;;;17.50;16.60;;;15.60;99.90;;;;;;5014425;28;20041;-54
2021/05/10 10:47:46;;;;;;;16.92;16.02;;;15.60;99.90;;;;;;5014420;28;20548;-51
2021/05/10 10:50:19;;;;;;;18.08;16.98;;;15.70;99.90;;;;;;5014647;28;20037;-52
2021/05/10 10:52:57;;;;;;;17.67;16.67;;;15.70;99.90;;;;;;5012962;28;20048;-51
2021/05/10 10:55:33;;;;;;;17.75;16.77;;;15.70;99.90;;;;;;5014250;28;20316;-53
2021/05/10 10:58:21;;;;;;;17.42;16.50;;;15.60;99.90;;;;;;5014134;28;20022;-54
2021/05/10 11:00:59;;;;;;;16.20;15.40;;;15.60;99.90;;;;;;5014150;28;20077;-51
2021/05/10 11:03:27;;;;;;;14.98;14.18;;;15.60;99.90;;;;;;5014083;28;20026;-50
2021/05/10 11:05:55;;;;;;;15.23;14.52;;;15.60;99.90;;;;;;5014022;28;20460;-51
2021/05/10 11:08:41;;;;;;;14.52;13.77;;;15.60;99.90;;;;;;5014027;28;20100;-54
2021/05/10 11:11:09;;;;;;;14.88;14.07;;;15.70;99.90;;;;;;5013825;28;20026;-53
2021/05/10 11:13:42;;;;;;;13.70;13.00;;;15.70;99.90;;;;;;5014213;28;20026;-49
2021/05/10 11:16:16;;;;;;;13.98;13.27;;;15.70;99.90;;;;;;5013941;28;20056;-56
2021/05/10 11:18:52;;;;;;;13.65;13.00;;;15.80;99.90;;;;;;5013898;28;20041;-53
2021/05/10 11:21:25;;;;;;;13.88;13.27;;;15.80;99.90;;;;;;5013908;28;20132;-52
2021/05/10 11:24:01;;;;;;;14.73;14.02;;;15.80;99.90;;;;;;5013616;28;20030;-50
2021/05/10 11:26:51;;;;;;;14.93;14.15;;;15.80;99.90;;;;;;5013949;28;20022;-55
2021/05/10 11:29:32;;;;;;;13.80;13.20;;;15.80;99.90;;;;;;5013634;28;20431;-52
2021/05/10 11:32:21;;;;;;;14.88;14.15;;;15.70;99.90;;;;;;5013592;28;20500;-52
2021/05/10 11:34:50;;;;;;;13.70;13.10;;;15.70;99.90;;;;;;5013623;28;20076;-51
2021/05/10 11:37:27;;;;;;;15.75;14.95;;;15.70;99.90;;;;;;5012576;28;20032;-50
2021/05/10 11:39:56;;;;;;;16.17;15.38;;;15.60;99.90;;;;;;5013651;28;20026;-54
2021/05/10 11:42:27;;;;;;;14.20;13.60;;;15.60;99.90;;;;;;5013605;28;20386;-51
2021/05/10 11:45:02;;;;;;;14.30;13.70;;;15.60;99.90;;;;;;5013442;28;20103;-51
2021/05/10 11:47:29;;;;;;;13.10;12.50;;;15.50;99.90;;;;;;5012011;28;20029;-51
2021/05/10 11:50:01;;;;;;;14.30;13.60;;;15.60;99.90;;;;;;5013069;28;20049;-55
2021/05/10 11:52:30;;;;;;;13.52;12.98;;;15.60;99.90;;;;;;5013067;28;20014;-52
2021/05/10 11:55:03;;;;;;;12.38;11.85;;;15.70;99.90;;;;;;5013025;28;20030;-55
2021/05/10 11:57:34;;;;;;;11.90;11.30;;;15.70;99.90;;;;;;5011589;28;20057;-55
2021/05/10 12:00:12;;;;;;;12.30;11.43;;;15.80;99.90;;;;;;5013217;28;20378;-49
2021/05/10 12:02:42;;;;;;;11.70;11.20;;;15.80;99.90;;;;;;5011470;28;20113;-55
2021/05/10 12:05:11;;;;;;;11.75;11.20;;;15.80;99.90;;;;;;5012977;28;20032;-53
2021/05/10 12:07:39;;;;;;;12.07;11.57;;;15.80;99.90;;;;;;5013196;28;20096;-50
2021/05/10 12:10:11;;;;;;;12.20;11.70;;;15.70;99.90;;;;;;5013336;28;20018;-54
2021/05/10 12:12:41;;;;;;;11.77;11.27;;;15.70;99.90;;;;;;5013244;28;20018;-53
2021/05/10 12:15:25;;;;;;;12.27;11.77;;;15.60;99.90;;;;;;5013207;28;20032;-52
2021/05/10 12:18:00;;;;;;;11.98;11.48;;;15.60;99.90;;;;;;5013177;28;20026;-53
2021/05/10 12:20:31;;;;;;;13.00;12.30;;;15.50;99.90;;;;;;5011694;28;20042;-54
2021/05/10 12:23:04;;;;;;;12.23;11.73;;;15.50;99.90;;;;;;5013143;28;20026;-53
2021/05/10 12:25:36;;;;;;;12.70;12.20;;;15.40;99.90;;;;;;5013203;28;20478;-54
2021/05/10 12:28:27;;;;;;;13.10;12.60;;;15.40;99.90;;;;;;5013238;28;20534;-49
2021/05/10 12:30:56;;;;;;;12.98;12.40;;;15.40;99.90;;;;;;5013081;28;20030;-53
2021/05/10 12:33:26;;;;;;;13.25;12.63;;;15.40;99.90;;;;;;5013053;28;20029;-53
2021/05/10 12:36:04;;;;;;;11.75;11.25;;;15.50;99.90;;;;;;5013025;28;20390;-53
2021/05/10 12:38:36;;;;;;;13.20;12.60;;;15.60;99.90;;;;;;5013372;28;20025;-52
2021/05/10 12:41:05;;;;;;;12.15;11.65;;;15.70;99.90;;;;;;5013045;28;20081;-50
2021/05/10 12:43:44;;;;;;;10.80;10.30;;;15.70;99.90;;;;;;5013147;28;20438;-51
2021/05/10 12:46:11;;;;;;;11.70;11.10;;;15.60;99.90;;;;;;5013047;28;20026;-51
2021/05/10 12:48:45;;;;;;;11.43;10.82;;;15.60;99.90;;;;;;5014855;28;20022;-49
2021/05/10 12:51:15;;;;;;;11.65;11.15;;;15.60;99.90;;;;;;5016902;28;20100;-49
2021/05/10 12:53:47;;;;;;;11.23;10.73;;;15.50;99.90;;;;;;5016827;28;20072;-51
2021/05/10 12:56:16;;;;;;;11.60;11.05;;;15.50;99.90;;;;;;5016669;28;20099;-52
2021/05/10 12:58:44;;;;;;;12.25;11.65;;;15.40;99.90;;;;;;5016729;28;20033;-48
2021/05/10 13:01:30;;;;;;;13.13;12.52;;;15.40;99.90;;;;;;5015411;28;20390;-52
2021/05/10 13:04:09;;;;;;;12.73;12.13;;;15.30;99.90;;;;;;5016518;28;20029;-53